Time;durP1;ratioP1;P1;durP2;ratioP2;P2;SDS_P1;SDS_P2;PMS_P1;PMS_P2;Temp;Humidity;BMP_temperature;BMP_pressure;BME280_temperature;BME280_humidity;BME280_pressure;Samples;Min_cycle;Max_cycle;Signal;HPM_P1;HPM_P2
2023/06/02 00:01:34;;;;;;;11.40;5.40;;;;;;;13.40;70.68;100081.71;102732;276;113192;-54
2023/06/02 00:04:14;;;;;;;12.80;4.80;;;;;;;13.39;70.83;100083.00;102738;276;97025;-56
2023/06/02 00:06:51;;;;;;;11.30;4.60;;;;;;;13.38;70.79;100085.77;102687;276;98029;-53
2023/06/02 00:09:28;;;;;;;11.20;4.70;;;;;;;13.36;70.58;100084.92;102739;276;121659;-53
2023/06/02 00:12:10;;;;;;;10.40;5.30;;;;;;;13.29;70.90;100087.64;102742;277;105428;-56
2023/06/02 00:14:53;;;;;;;14.50;4.80;;;;;;;13.23;70.81;100089.62;102717;276;114602;-55
2023/06/02 00:17:35;;;;;;;13.90;5.60;;;;;;;13.21;71.12;100086.45;102734;276;92421;-56
2023/06/02 00:20:20;;;;;;;9.70;5.00;;;;;;;13.22;71.11;100081.20;102736;277;97324;-56
2023/06/02 00:23:02;;;;;;;9.10;4.30;;;;;;;13.21;71.03;100085.16;102748;277;120468;-56
2023/06/02 00:25:43;;;;;;;11.10;4.90;;;;;;;13.15;71.25;100083.68;102772;277;105758;-53
2023/06/02 00:28:32;;;;;;;8.30;4.70;;;;;;;13.11;71.40;100085.10;102743;277;113877;-52
2023/06/02 00:31:14;;;;;;;11.60;5.00;;;;;;;13.07;71.44;100085.69;102772;277;95656;-55
2023/06/02 00:34:03;;;;;;;12.10;5.40;;;;;;;13.03;71.44;100086.23;102619;277;98384;-56
2023/06/02 00:36:47;;;;;;;10.40;5.20;;;;;;;12.99;71.76;100092.34;102594;277;120125;-56
2023/06/02 00:39:29;;;;;;;11.20;5.20;;;;;;;13.00;71.76;100091.23;102652;277;104131;-55
2023/06/02 00:42:09;;;;;;;13.10;6.00;;;;;;;13.01;71.85;100091.48;102633;277;113732;-56
2023/06/02 00:44:47;;;;;;;9.70;5.50;;;;;;;13.05;71.95;100093.47;102581;277;93123;-53
2023/06/02 00:47:25;;;;;;;9.60;4.80;;;;;;;13.04;71.92;100092.86;102651;277;97839;-51
2023/06/02 00:50:10;;;;;;;8.10;4.70;;;;;;;12.99;71.96;100092.45;102633;266;120654;-52
2023/06/02 00:52:54;;;;;;;13.40;5.10;;;;;;;12.95;71.87;100095.01;102580;277;105525;-53
2023/06/02 00:55:31;;;;;;;10.80;4.70;;;;;;;12.89;71.95;100090.05;102584;277;114481;-55
2023/06/02 00:58:13;;;;;;;13.40;5.50;;;;;;;12.84;72.10;100086.05;102597;277;96606;-56
2023/06/02 01:00:54;;;;;;;12.30;5.50;;;;;;;12.85;71.90;100089.81;102587;278;95572;-56
2023/06/02 01:03:31;;;;;;;11.60;5.20;;;;;;;12.80;72.14;100090.29;102614;277;120836;-56
2023/06/02 01:06:08;;;;;;;11.20;4.30;;;;;;;12.77;72.17;100087.91;102628;277;103577;-55
2023/06/02 01:08:47;;;;;;;11.30;5.00;;;;;;;12.73;72.31;100090.88;102659;277;115231;-56
2023/06/02 01:11:30;;;;;;;12.40;5.00;;;;;;;12.68;72.47;100087.88;102665;277;93649;-54
2023/06/02 01:14:14;;;;;;;11.80;5.40;;;;;;;12.67;72.60;100087.77;102444;277;96338;-55
2023/06/02 01:16:52;;;;;;;11.30;5.80;;;;;;;12.64;72.67;100087.27;102623;277;118979;-51
2023/06/02 01:19:31;;;;;;;8.60;5.20;;;;;;;12.60;72.78;100088.27;102593;277;105303;-52
2023/06/02 01:22:13;;;;;;;10.50;5.20;;;;;;;12.61;72.81;100090.38;102623;277;115080;-53
2023/06/02 01:24:58;;;;;;;10.90;5.30;;;;;;;12.62;72.81;100093.23;102623;277;97383;-53
2023/06/02 01:27:37;;;;;;;11.50;5.00;;;;;;;12.59;72.99;100095.05;102562;277;98026;-54
2023/06/02 01:30:17;;;;;;;11.10;5.10;;;;;;;12.55;73.02;100089.35;102591;277;120570;-55
2023/06/02 01:33:00;;;;;;;10.60;5.10;;;;;;;12.50;73.33;100088.14;102588;277;105319;-55
2023/06/02 01:35:50;;;;;;;9.60;5.30;;;;;;;12.50;73.18;100091.23;102617;277;115190;-52
2023/06/02 01:38:35;;;;;;;12.80;5.80;;;;;;;12.41;73.47;100091.81;102591;277;94283;-52
2023/06/02 01:41:13;;;;;;;;;;;;;;;12.37;73.43;100091.18;102669;277;97559;-54
2023/06/02 01:43:55;;;;;;;10.10;5.90;;;;;;;12.27;73.59;100094.77;102604;277;120467;-56
2023/06/02 01:46:34;;;;;;;8.20;4.80;;;;;;;12.18;73.41;100096.52;102605;277;104699;-53
2023/06/02 01:49:18;;;;;;;8.70;6.10;;;;;;;12.08;73.51;100094.00;102642;277;115037;-53
2023/06/02 01:51:54;;;;;;;10.00;5.30;;;;;;;11.98;73.55;100091.90;102615;277;95528;-53
2023/06/02 01:54:34;;;;;;;9.00;5.70;;;;;;;11.95;73.69;100092.02;102671;277;96434;-53
2023/06/02 01:57:10;;;;;;;11.60;5.50;;;;;;;11.95;74.07;100091.57;102684;277;121034;-52
2023/06/02 01:59:51;;;;;;;10.50;5.60;;;;;;;11.99;74.31;100088.87;102665;278;105708;-53
2023/06/02 02:02:32;;;;;;;10.50;5.40;;;;;;;12.08;74.58;100089.17;102677;277;114641;-55
2023/06/02 02:05:13;;;;;;;10.40;5.30;;;;;;;12.16;74.67;100089.09;102605;277;97121;-53
2023/06/02 02:07:50;;;;;;;10.20;4.90;;;;;;;12.23;74.83;100095.35;102599;277;97506;-52
2023/06/02 02:10:37;;;;;;;12.10;5.30;;;;;;;12.32;74.71;100098.56;102608;277;120748;-54
2023/06/02 02:13:13;;;;;;;10.10;5.70;;;;;;;12.37;74.81;100092.95;102626;277;105929;-55
2023/06/02 02:15:53;;;;;;;11.00;5.60;;;;;;;12.39;74.75;100090.31;102592;277;114840;-56
2023/06/02 02:18:33;;;;;;;12.50;6.30;;;;;;;12.33;74.67;100092.98;102624;277;93943;-56
2023/06/02 02:21:15;;;;;;;11.40;5.50;;;;;;;12.26;74.65;100088.02;102619;277;98271;-55
2023/06/02 02:23:54;;;;;;;10.70;5.90;;;;;;;12.16;74.57;100087.59;102597;277;120754;-55
2023/06/02 02:26:35;;;;;;;10.10;5.10;;;;;;;12.06;74.45;100085.00;102618;277;105657;-53
2023/06/02 02:29:18;;;;;;;11.90;5.70;;;;;;;11.94;74.45;100088.77;102597;277;114593;-52
2023/06/02 02:31:58;;;;;;;11.20;5.60;;;;;;;11.84;74.69;100087.48;102662;277;95928;-55
2023/06/02 02:34:45;;;;;;;14.20;6.40;;;;;;;11.77;74.70;100087.29;102684;277;97189;-56
2023/06/02 02:37:30;;;;;;;12.70;6.30;;;;;;;11.70;74.86;100092.42;102673;277;121235;-56
2023/06/02 02:40:10;;;;;;;12.20;6.00;;;;;;;11.61;74.95;100092.70;102767;266;104427;-54
2023/06/02 02:42:56;;;;;;;10.50;6.10;;;;;;;11.53;74.95;100093.92;102640;277;113027;-55
2023/06/02 02:45:39;;;;;;;11.50;6.10;;;;;;;11.49;75.03;100098.32;102666;277;96173;-55
2023/06/02 02:48:17;;;;;;;10.70;5.60;;;;;;;11.46;75.06;100099.55;102626;277;97925;-56
2023/06/02 02:50:59;;;;;;;9.70;5.70;;;;;;;11.45;75.23;100099.85;102643;277;120364;-53
2023/06/02 02:53:40;;;;;;;13.30;6.50;;;;;;;11.39;75.21;100099.28;102635;277;103944;-52
2023/06/02 02:56:18;;;;;;;10.10;5.60;;;;;;;11.35;75.45;100099.23;102575;277;115591;-52
2023/06/02 02:58:57;;;;;;;11.00;5.90;;;;;;;11.31;75.56;100099.46;102589;277;97625;-50
2023/06/02 03:01:34;;;;;;;11.50;5.70;;;;;;;11.31;75.70;100094.72;102614;277;98104;-52
2023/06/02 03:04:10;;;;;;;;;;;;;;;11.36;75.80;100099.34;102647;277;120255;-53
2023/06/02 03:06:49;;;;;;;14.90;6.60;;;;;;;11.43;75.98;100099.58;102653;277;103757;-55
2023/06/02 03:09:23;;;;;;;13.00;6.40;;;;;;;11.51;76.18;100099.27;102607;277;114653;-55
2023/06/02 03:12:00;;;;;;;10.80;6.60;;;;;;;11.56;76.18;100092.85;102597;277;96781;-55
2023/06/02 03:14:37;;;;;;;13.30;6.30;;;;;;;11.68;76.27;100096.61;102338;278;98873;-55
2023/06/02 03:17:14;;;;;;;12.70;6.70;;;;;;;11.79;76.48;100096.00;102461;282;120992;-55
2023/06/02 03:19:57;;;;;;;10.70;6.10;;;;;;;11.90;76.43;100092.67;102382;278;106197;-56
2023/06/02 03:22:38;;;;;;;12.70;6.90;;;;;;;12.03;76.50;100092.67;102548;278;114577;-55
2023/06/02 03:25:13;;;;;;;10.80;6.30;;;;;;;12.21;76.54;100095.52;102513;278;96510;-57
2023/06/02 03:27:51;;;;;;;10.00;5.60;;;;;;;12.43;76.43;100095.73;102546;278;98577;-55
2023/06/02 03:30:35;;;;;;;13.20;6.40;;;;;;;12.63;76.04;100103.70;102555;278;120259;-53
2023/06/02 03:33:20;;;;;;;14.70;6.50;;;;;;;12.70;75.95;100106.35;102525;278;104595;-52
2023/06/02 03:36:03;;;;;;;12.40;7.20;;;;;;;12.74;75.66;100105.05;102522;278;114482;-51
2023/06/02 03:38:40;;;;;;;;;;;;;;;12.74;75.67;100110.44;102332;278;96769;-53
2023/06/02 03:41:23;;;;;;;12.20;7.20;;;;;;;12.79;75.75;100111.09;102534;278;96229;-53
2023/06/02 03:44:03;;;;;;;13.60;7.50;;;;;;;12.88;75.67;100108.86;102495;278;121243;-53
2023/06/02 03:46:41;;;;;;;10.10;5.90;;;;;;;13.00;75.58;100107.23;102532;278;104942;-55
2023/06/02 03:49:21;;;;;;;12.30;6.90;;;;;;;13.20;75.48;100106.61;102500;278;114078;-54
2023/06/02 03:51:55;;;;;;;13.40;7.10;;;;;;;13.23;75.25;100109.77;102540;278;95083;-55
2023/06/02 03:54:32;;;;;;;;;;;;;;;13.23;75.33;100109.98;102575;278;97901;-55
2023/06/02 03:57:16;;;;;;;11.80;7.50;;;;;;;13.26;75.49;100112.05;102564;278;119649;-55
2023/06/02 04:00:01;;;;;;;14.10;7.80;;;;;;;13.28;75.27;100119.65;102543;278;104871;-56
2023/06/02 04:02:44;;;;;;;13.50;7.70;;;;;;;13.27;75.12;100121.91;102443;278;114067;-54
2023/06/02 04:05:30;;;;;;;;;;;;;;;13.28;75.20;100120.65;102521;278;96022;-55
2023/06/02 04:08:14;;;;;;;10.20;6.60;;;;;;;13.34;75.20;100119.05;102546;278;97321;-56
2023/06/02 04:10:54;;;;;;;12.30;7.00;;;;;;;13.39;75.26;100124.30;102532;278;119824;-55
2023/06/02 04:13:36;;;;;;;12.50;7.70;;;;;;;13.49;75.00;100125.24;102558;277;105875;-55
2023/06/02 04:16:14;;;;;;;11.80;6.60;;;;;;;13.50;75.05;100124.78;102632;277;113520;-56
2023/06/02 04:18:50;;;;;;;11.30;6.70;;;;;;;13.57;74.99;100127.77;102587;277;93435;-56
2023/06/02 04:21:32;;;;;;;17.50;7.20;;;;;;;13.60;74.93;100129.80;102606;277;97325;-52
2023/06/02 04:24:12;;;;;;;15.30;7.00;;;;;;;13.67;74.71;100130.40;102638;277;120451;-52
2023/06/02 04:26:58;;;;;;;12.90;7.10;;;;;;;13.72;74.62;100127.98;102584;277;105231;-55
2023/06/02 04:29:41;;;;;;;14.20;7.20;;;;;;;13.80;74.62;100127.61;102539;277;114801;-55
2023/06/02 04:32:17;;;;;;;12.00;7.30;;;;;;;13.84;74.45;100129.02;102660;277;96700;-55
2023/06/02 04:34:55;;;;;;;11.90;7.30;;;;;;;13.83;74.43;100127.06;102617;277;96842;-54
2023/06/02 04:37:32;;;;;;;12.20;7.00;;;;;;;13.90;74.26;100132.62;102709;278;119333;-53
2023/06/02 04:40:14;;;;;;;9.60;7.40;;;;;;;13.98;74.24;100133.49;102634;277;105264;-53
2023/06/02 04:42:53;;;;;;;14.10;7.40;;;;;;;14.07;73.81;100133.69;102665;277;114564;-55
2023/06/02 04:45:33;;;;;;;15.00;7.60;;;;;;;14.10;73.79;100130.26;102655;277;95973;-53
2023/06/02 04:48:11;;;;;;;12.50;7.10;;;;;;;14.10;73.64;100129.45;102672;277;98105;-51
2023/06/02 04:50:55;;;;;;;9.30;6.30;;;;;;;14.13;73.70;100130.94;102652;275;120800;-55
2023/06/02 04:53:36;;;;;;;16.00;7.90;;;;;;;14.22;73.57;100132.00;102590;266;105785;-55
2023/06/02 04:56:19;;;;;;;11.40;6.80;;;;;;;14.32;73.37;100131.20;102493;277;116928;-55
2023/06/02 04:58:58;;;;;;;13.50;6.50;;;;;;;14.41;73.25;100133.92;102627;277;94241;-56
2023/06/02 05:01:39;;;;;;;11.80;6.70;;;;;;;14.42;73.10;100137.00;102628;277;97880;-52
2023/06/02 05:04:16;;;;;;;15.40;7.50;;;;;;;14.41;73.02;100139.98;102593;277;120135;-52
2023/06/02 05:06:56;;;;;;;12.40;6.50;;;;;;;14.43;72.83;100146.55;102587;277;104517;-54
2023/06/02 05:09:37;;;;;;;11.50;7.30;;;;;;;14.41;72.68;100144.94;102631;277;114472;-52
2023/06/02 05:12:25;;;;;;;11.30;6.20;;;;;;;14.37;72.71;100147.11;102602;278;96072;-53
2023/06/02 05:15:06;;;;;;;11.70;6.30;;;;;;;14.41;72.72;100143.58;102384;277;100938;-50
2023/06/02 05:17:43;;;;;;;10.80;6.50;;;;;;;14.44;72.62;100140.41;102640;277;119920;-53
2023/06/02 05:20:23;;;;;;;13.50;6.80;;;;;;;14.52;72.62;100139.97;102723;277;104569;-53
2023/06/02 05:23:02;;;;;;;11.90;6.00;;;;;;;14.55;72.42;100143.26;102708;277;115559;-52
2023/06/02 05:25:41;;;;;;;13.50;6.60;;;;;;;14.65;72.30;100140.69;102678;277;92019;-56
2023/06/02 05:28:19;;;;;;;10.50;6.80;;;;;;;14.77;72.30;100136.38;102610;277;96869;-55
2023/06/02 05:30:54;;;;;;;10.00;7.00;;;;;;;14.79;72.19;100140.95;102628;277;120247;-63
2023/06/02 05:33:35;;;;;;;11.30;6.30;;;;;;;14.82;71.96;100147.70;102658;277;104601;-56
2023/06/02 05:36:11;;;;;;;10.20;6.40;;;;;;;14.94;71.85;100147.52;102578;277;113368;-56
2023/06/02 05:38:51;;;;;;;10.00;6.00;;;;;;;14.98;71.69;100147.02;102605;277;97040;-56
2023/06/02 05:41:29;;;;;;;9.80;6.70;;;;;;;15.03;71.52;100149.67;102652;277;97384;-53
2023/06/02 05:44:04;;;;;;;10.30;6.60;;;;;;;15.08;71.53;100150.14;102628;277;119735;-53
2023/06/02 05:46:41;;;;;;;12.60;6.50;;;;;;;15.12;71.15;100154.95;102618;277;103542;-53
2023/06/02 05:49:21;;;;;;;10.80;6.40;;;;;;;15.14;71.17;100163.17;102096;277;655325;-52
2023/06/02 05:52:02;;;;;;;11.80;6.60;;;;;;;15.09;71.09;100164.56;102465;277;94990;-53
2023/06/02 05:54:39;;;;;;;13.10;7.30;;;;;;;15.04;71.25;100169.19;102639;277;97420;-52
2023/06/02 05:57:22;;;;;;;12.40;6.30;;;;;;;14.93;70.97;100171.88;102679;277;120730;-55
2023/06/02 06:00:08;;;;;;;11.50;7.10;;;;;;;14.85;71.15;100179.27;102641;277;104268;-56
2023/06/02 06:02:46;;;;;;;11.90;7.10;;;;;;;14.81;71.04;100181.54;102632;277;113359;-56
2023/06/02 06:05:32;;;;;;;11.80;6.60;;;;;;;14.78;71.18;100179.83;102646;277;95686;-53
2023/06/02 06:08:10;;;;;;;10.60;6.00;;;;;;;14.76;71.33;100180.72;102612;277;96831;-53
2023/06/02 06:10:46;;;;;;;9.90;6.30;;;;;;;14.76;71.33;100180.73;102603;277;119015;-55
2023/06/02 06:13:21;;;;;;;10.10;6.40;;;;;;;14.68;71.36;100179.32;102599;277;104745;-53
2023/06/02 06:15:57;;;;;;;12.20;6.30;;;;;;;14.70;71.46;100180.86;102646;277;113577;-56
2023/06/02 06:18:35;;;;;;;9.30;5.90;;;;;;;14.71;71.59;100181.73;102645;277;94363;-55
2023/06/02 06:21:13;;;;;;;10.50;5.80;;;;;;;14.74;71.50;100182.65;102658;277;98000;-52
2023/06/02 06:23:55;;;;;;;11.40;5.90;;;;;;;14.66;71.53;100184.73;102554;277;119196;-53
2023/06/02 06:26:45;;;;;;;8.00;5.70;;;;;;;14.65;71.48;100194.98;102635;277;104367;-55
2023/06/02 06:29:24;;;;;;;10.00;5.80;;;;;;;14.65;71.41;100195.21;102588;277;114432;-55
2023/06/02 06:32:05;;;;;;;10.20;5.80;;;;;;;14.57;71.73;100203.38;102576;277;97275;-63
2023/06/02 06:34:45;;;;;;;7.60;5.00;;;;;;;14.51;71.78;100206.42;102621;277;96717;-53
2023/06/02 06:37:28;;;;;;;10.60;5.40;;;;;;;14.43;72.01;100208.30;102605;277;119426;-56
2023/06/02 06:40:08;;;;;;;11.00;6.20;;;;;;;14.42;72.53;100211.96;102627;277;106019;-55
2023/06/02 06:42:46;;;;;;;9.10;5.60;;;;;;;14.45;72.77;100211.65;102603;277;114298;-53
2023/06/02 06:45:28;;;;;;;9.30;5.40;;;;;;;14.46;72.70;100209.52;102624;277;97418;-55
2023/06/02 06:48:03;;;;;;;8.70;5.80;;;;;;;14.45;72.48;100213.04;102657;277;97989;-54
2023/06/02 06:50:44;;;;;;;8.50;5.90;;;;;;;14.42;72.44;100213.89;102668;277;119075;-53
2023/06/02 06:53:21;;;;;;;8.70;4.90;;;;;;;14.46;72.55;100214.96;102736;277;104411;-53
2023/06/02 06:56:04;;;;;;;9.70;4.80;;;;;;;14.56;72.52;100217.18;102712;277;112664;-54
2023/06/02 06:58:47;;;;;;;12.00;5.10;;;;;;;14.61;72.61;100222.20;102675;266;93966;-52
2023/06/02 07:01:27;;;;;;;;;;;;;;;14.68;72.53;100228.09;102655;277;97570;-56
2023/06/02 07:04:11;;;;;;;9.70;6.30;;;;;;;14.77;72.55;100229.36;102629;277;121185;-56
2023/06/02 07:06:54;;;;;;;11.70;7.10;;;;;;;14.89;72.49;100230.27;102635;277;105103;-54
2023/06/02 07:09:38;;;;;;;8.00;4.80;;;;;;;14.90;72.62;100234.55;102598;277;111954;-52
2023/06/02 07:12:21;;;;;;;8.50;4.80;;;;;;;14.86;72.51;100237.01;102625;277;97004;-55
2023/06/02 07:15:07;;;;;;;9.60;5.50;;;;;;;14.73;72.81;100238.10;102618;277;98029;-55
2023/06/02 07:17:45;;;;;;;7.00;4.40;;;;;;;14.72;72.60;100244.44;102620;277;119863;-56
2023/06/02 07:20:28;;;;;;;8.60;4.30;;;;;;;14.68;72.99;100246.50;102579;277;106134;-62
2023/06/02 07:23:07;;;;;;;9.40;5.50;;;;;;;14.80;73.17;100252.70;102607;277;113861;-57
2023/06/02 07:25:51;;;;;;;8.40;4.70;;;;;;;14.93;73.25;100253.43;102592;277;96064;-58
2023/06/02 07:28:28;;;;;;;11.00;6.10;;;;;;;15.11;73.35;100253.20;102673;277;97082;-56
2023/06/02 07:31:04;;;;;;;12.30;5.90;;;;;;;15.36;73.14;100254.61;102670;277;119696;-53
2023/06/02 07:33:41;;;;;;;9.20;5.00;;;;;;;15.63;72.94;100254.13;102699;277;104650;-52
2023/06/02 07:36:20;;;;;;;6.10;4.20;;;;;;;15.82;72.57;100256.25;102636;277;112889;-57
2023/06/02 07:39:04;;;;;;;9.00;4.90;;;;;;;16.02;72.13;100256.45;102679;277;93893;-57
2023/06/02 07:41:43;;;;;;;;;;;;;;;16.25;71.64;100254.69;102676;277;96606;-57
2023/06/02 07:44:29;;;;;;;11.20;4.40;;;;;;;16.37;71.10;100255.44;102628;277;120570;-60
2023/06/02 07:47:08;;;;;;;11.40;4.00;;;;;;;16.47;70.82;100259.17;102636;277;104690;-58
2023/06/02 07:49:47;;;;;;;7.60;4.40;;;;;;;16.43;70.16;100258.52;102571;277;114850;-58
2023/06/02 07:52:32;;;;;;;25.90;6.90;;;;;;;16.54;69.96;100252.71;102571;277;95263;-57
2023/06/02 07:55:12;;;;;;;8.60;3.80;;;;;;;16.50;69.36;100254.68;102645;277;96418;-59
2023/06/02 08:04:10;;;;;;;9.80;3.40;;;;;;;16.06;68.27;100270.36;102611;278;114418;-56
2023/06/02 08:06:49;;;;;;;5.90;3.20;;;;;;;15.99;68.26;100270.48;102599;278;93285;-57
2023/06/02 08:09:32;;;;;;;8.10;3.30;;;;;;;15.87;68.05;100276.35;102592;277;98463;-60
2023/06/02 08:12:14;;;;;;;7.10;3.20;;;;;;;15.71;68.07;100279.89;102621;278;120400;-56
2023/06/02 08:14:57;;;;;;;6.70;3.30;;;;;;;15.61;68.25;100284.26;102618;278;105045;-57
2023/06/02 08:17:38;;;;;;;7.30;3.30;;;;;;;15.55;68.35;100289.19;102624;277;114548;-57
2023/06/02 08:20:17;;;;;;;8.30;3.20;;;;;;;15.55;68.24;100294.71;102627;278;96105;-58
2023/06/02 08:22:56;;;;;;;6.00;2.90;;;;;;;15.52;68.46;100302.64;102593;278;98197;-58
2023/06/02 08:25:37;;;;;;;10.00;3.70;;;;;;;15.55;68.47;100308.91;102590;278;120439;-57
2023/06/02 08:28:24;;;;;;;10.30;3.60;;;;;;;15.59;68.55;100306.58;102562;278;104869;-57
2023/06/02 08:31:07;;;;;;;10.20;3.50;;;;;;;15.70;68.40;100310.40;102463;278;113617;-57
2023/06/02 08:33:52;;;;;;;8.00;3.30;;;;;;;15.99;68.41;100306.83;102579;277;93916;-58
2023/06/02 08:36:34;;;;;;;7.40;3.50;;;;;;;16.38;68.40;100308.75;102649;278;98382;-58
2023/06/02 08:39:17;;;;;;;8.00;3.60;;;;;;;16.72;67.96;100309.90;102577;278;120749;-60
2023/06/02 08:41:55;;;;;;;6.80;3.60;;;;;;;17.00;67.53;100308.16;102641;278;104439;-59
2023/06/02 08:44:37;;;;;;;6.90;2.90;;;;;;;17.30;66.92;100303.10;102590;278;114239;-60
2023/06/02 08:47:15;;;;;;;10.50;3.20;;;;;;;17.46;66.68;100303.41;102629;278;93823;-59
2023/06/02 08:49:59;;;;;;;11.60;3.70;;;;;;;17.56;66.38;100304.87;102630;278;97921;-58
2023/06/02 08:52:38;;;;;;;9.30;4.00;;;;;;;17.47;65.73;100305.03;102529;279;120662;-58
2023/06/02 08:55:14;;;;;;;7.10;3.40;;;;;;;17.30;65.70;100314.10;102708;278;105941;-58
2023/06/02 08:57:52;;;;;;;8.20;3.40;;;;;;;17.23;65.60;100308.39;102648;278;112673;-57
2023/06/02 09:00:32;;;;;;;9.20;3.30;;;;;;;17.03;65.34;100310.08;102625;278;94742;-59
2023/06/02 09:03:17;;;;;;;8.30;3.80;;;;;;;16.92;65.40;100314.45;102582;278;98240;-60
2023/06/02 09:06:01;;;;;;;9.70;3.50;;;;;;;16.74;65.40;100315.14;102435;279;120995;-59
2023/06/02 09:08:54;;;;;;;8.00;3.70;;;;;;;16.53;65.27;100315.25;102567;278;106139;-56
2023/06/02 09:11:35;;;;;;;8.10;4.10;;;;;;;16.35;65.60;100320.69;102531;278;114764;-57
2023/06/02 09:14:25;;;;;;;9.50;3.90;;;;;;;16.09;65.57;100327.67;102485;278;92135;-58
2023/06/02 09:17:23;;;;;;;7.20;3.10;;;;;;;15.79;66.46;100343.63;102501;266;96722;-58
2023/06/02 09:20:10;;;;;;;7.80;3.10;;;;;;;15.37;67.08;100350.97;102490;278;120734;-59
2023/06/02 09:23:05;;;;;;;7.70;3.10;;;;;;;15.08;67.70;100357.16;102527;278;104609;-58
2023/06/02 09:25:45;;;;;;;8.70;3.20;;;;;;;14.71;68.58;100364.27;102528;278;113547;-58
2023/06/02 09:28:28;;;;;;;5.50;3.20;;;;;;;14.58;68.86;100369.33;102523;266;97369;-59
2023/06/02 09:31:13;;;;;;;6.60;3.10;;;;;;;14.38;69.77;100370.64;102508;278;95792;-59
2023/06/02 09:34:00;;;;;;;9.50;3.10;;;;;;;14.28;69.71;100372.42;102517;278;120528;-56
2023/06/02 09:36:38;;;;;;;7.90;3.40;;;;;;;14.29;70.17;100378.65;102544;278;104266;-56
2023/06/02 09:39:34;;;;;;;6.40;3.40;;;;;;;14.18;70.84;100383.95;102524;279;113739;-56
2023/06/02 09:42:19;;;;;;;10.80;4.20;;;;;;;14.05;71.20;100386.48;102602;279;96902;-55
2023/06/02 09:45:11;;;;;;;7.50;3.40;;;;;;;14.03;71.76;100390.46;102587;278;98275;-56
2023/06/02 09:47:51;;;;;;;8.60;3.40;;;;;;;14.00;72.17;100391.09;102516;279;119133;-57
2023/06/02 09:50:41;;;;;;;8.00;3.40;;;;;;;14.02;72.08;100395.27;102520;278;105109;-56
2023/06/02 09:53:22;;;;;;;11.60;4.00;;;;;;;14.10;72.37;100398.37;102486;278;114527;-53
2023/06/02 09:56:02;;;;;;;12.40;3.60;;;;;;;14.22;72.36;100396.98;102504;279;97122;-54
2023/06/02 09:58:38;;;;;;;7.90;3.50;;;;;;;14.29;72.70;100396.38;102543;279;97653;-56
2023/06/02 10:01:20;;;;;;;8.70;4.10;;;;;;;14.32;72.64;100393.83;102507;278;119866;-56
2023/06/02 10:04:02;;;;;;;5.40;3.20;;;;;;;14.52;72.33;100395.48;102541;278;105798;-53
2023/06/02 10:06:52;;;;;;;8.10;3.80;;;;;;;14.79;72.14;100393.98;102594;278;112826;-60
2023/06/02 10:09:47;;;;;;;7.70;2.90;;;;;;;15.01;71.91;100388.81;102575;278;96900;-53
2023/06/02 10:12:45;;;;;;;8.90;3.40;;;;;;;15.25;71.36;100399.21;102569;278;97835;-52
2023/06/02 10:16:01;;;;;;;8.20;3.10;;;;;;;15.43;70.62;100397.54;102574;278;121269;-51
2023/06/02 10:19:19;;;;;;;5.20;2.90;;;;;;;15.56;69.97;100397.75;102597;278;104218;-53
2023/06/02 10:22:28;;;;;;;4.30;2.50;;;;;;;15.52;69.43;100400.88;102635;278;113296;-53
2023/06/02 10:25:19;;;;;;;6.60;2.70;;;;;;;15.57;68.61;100401.81;102623;278;92727;-56
2023/06/02 10:27:55;;;;;;;4.80;2.20;;;;;;;15.58;67.98;100407.17;102679;278;96083;-56
2023/06/02 10:30:37;;;;;;;5.50;2.30;;;;;;;15.43;67.37;100415.30;102679;278;120481;-56
2023/06/02 10:33:49;;;;;;;5.50;2.20;;;;;;;15.26;67.10;100417.70;102630;278;105610;-56
2023/06/02 10:36:29;;;;;;;3.50;2.10;;;;;;;15.25;66.71;100421.90;102663;277;114599;-57
2023/06/02 10:39:48;;;;;;;4.00;1.80;;;;;;;15.39;66.30;100426.91;102657;278;93848;-55
2023/06/02 10:42:27;;;;;;;3.40;1.90;;;;;;;15.37;65.92;100432.71;102598;278;96571;-56
2023/06/02 10:45:38;;;;;;;2.90;1.70;;;;;;;15.40;65.85;100435.33;102634;278;120011;-53
2023/06/02 10:48:43;;;;;;;9.50;2.50;;;;;;;15.40;65.99;100433.33;102622;278;106342;-57
2023/06/02 10:51:26;;;;;;;7.60;3.20;;;;;;;15.61;65.55;100442.20;102576;278;114669;-57
2023/06/02 10:54:21;;;;;;;4.80;1.80;;;;;;;15.53;64.83;100441.14;102608;278;94519;-56
2023/06/02 10:56:59;;;;;;;6.30;2.10;;;;;;;15.44;64.82;100444.20;102576;278;97236;-56
2023/06/02 10:59:38;;;;;;;3.80;1.70;;;;;;;15.53;64.70;100447.46;102574;278;120842;-56
2023/06/02 11:02:35;;;;;;;4.60;2.00;;;;;;;15.56;64.01;100448.11;102592;278;103676;-56
2023/06/02 11:05:31;;;;;;;3.70;1.60;;;;;;;15.49;63.84;100443.30;102593;278;115121;-53
2023/06/02 11:08:37;;;;;;;4.20;2.10;;;;;;;15.57;63.39;100449.15;102602;278;95220;-53
2023/06/02 11:11:53;;;;;;;3.40;1.50;;;;;;;15.68;63.21;100453.52;102605;278;98076;-53
2023/06/02 11:15:06;;;;;;;5.20;1.80;;;;;;;15.68;62.43;100454.48;102559;278;121092;-57
2023/06/02 11:17:47;;;;;;;3.70;1.90;;;;;;;15.64;62.20;100459.28;102571;278;105484;-56
2023/06/02 11:20:39;;;;;;;5.60;2.00;;;;;;;15.69;62.27;100460.83;102466;279;114427;-56
2023/06/02 11:23:19;;;;;;;5.20;2.00;;;;;;;15.69;61.88;100469.01;102586;278;94799;-56
2023/06/02 11:26:22;;;;;;;4.30;1.90;;;;;;;15.54;61.54;100474.19;102607;278;98675;-56
2023/06/02 11:29:17;;;;;;;4.60;1.90;;;;;;;15.57;61.62;100483.88;102564;278;119861;-54
2023/06/02 11:31:57;;;;;;;3.60;1.70;;;;;;;15.57;61.02;100494.02;102594;277;104890;-57
2023/06/02 11:34:38;;;;;;;3.80;2.00;;;;;;;15.43;60.89;100495.67;102589;277;114343;-57
2023/06/02 11:37:20;;;;;;;5.00;1.90;;;;;;;15.40;60.78;100499.84;102587;278;94732;-57
2023/06/02 11:39:57;;;;;;;4.60;1.80;;;;;;;15.26;60.69;100503.67;102584;278;96400;-56
2023/06/02 11:42:50;;;;;;;4.70;2.10;;;;;;;15.07;60.58;100509.34;102565;278;119023;-56
2023/06/02 11:45:32;;;;;;;4.80;1.90;;;;;;;15.01;60.79;100519.06;102394;278;105579;-57
2023/06/02 11:48:15;;;;;;;5.40;2.00;;;;;;;14.94;60.33;100518.71;102409;279;113192;-53
2023/06/02 11:51:02;;;;;;;4.70;1.50;;;;;;;14.87;59.98;100525.15;102567;278;93970;-56
2023/06/02 11:53:58;;;;;;;2.10;1.60;;;;;;;14.83;60.14;100529.71;102550;270;98411;-56
2023/06/02 11:56:38;;;;;;;5.10;1.70;;;;;;;14.73;59.83;100535.00;102557;277;120852;-57
2023/06/02 11:59:28;;;;;;;5.50;2.10;;;;;;;14.71;60.05;100540.79;102566;278;105260;-52
2023/06/02 12:02:04;;;;;;;3.30;1.80;;;;;;;14.59;60.11;100542.58;102335;278;113970;-53
2023/06/02 12:04:58;;;;;;;5.10;2.20;;;;;;;14.50;60.20;100542.76;102544;278;94716;-53
2023/06/02 12:07:39;;;;;;;4.70;2.10;;;;;;;14.44;60.41;100556.35;102536;278;98367;-53
2023/06/02 12:10:14;;;;;;;3.90;1.80;;;;;;;14.41;60.30;100557.40;102559;278;119428;-54
2023/06/02 12:12:56;;;;;;;3.00;2.00;;;;;;;14.33;60.44;100561.08;102621;277;106860;-53
2023/06/02 12:15:37;;;;;;;5.70;2.00;;;;;;;14.25;60.57;100556.16;102557;278;115433;-56
2023/06/02 12:18:31;;;;;;;5.20;2.10;;;;;;;14.27;60.46;100560.09;102652;278;94573;-53
2023/06/02 12:21:26;;;;;;;5.50;2.80;;;;;;;14.28;60.49;100562.61;102634;277;96726;-53
2023/06/02 12:24:11;;;;;;;3.50;1.70;;;;;;;14.43;60.63;100564.59;102645;278;120708;-54
2023/06/02 12:26:51;;;;;;;5.00;1.90;;;;;;;14.62;60.25;100565.73;102633;278;106102;-54
2023/06/02 12:29:33;;;;;;;3.70;1.70;;;;;;;14.65;60.14;100571.34;102548;278;114137;-54
2023/06/02 12:32:25;;;;;;;5.40;2.10;;;;;;;14.67;60.12;100573.06;102527;278;94436;-54
2023/06/02 12:35:09;;;;;;;4.90;2.00;;;;;;;14.75;60.21;100574.20;102572;278;97970;-56